sensor_id;sensor_type;location;lat;lon;timestamp;P1;durP1;ratioP1;P2;durP2;ratioP2
10005;SDS011;5042;42.626;23.382;2024-03-02T00:00:33;27.97;;;18.53;;
10005;SDS011;5042;42.626;23.382;2024-03-02T00:02:59;22.10;;;14.10;;
10005;SDS011;5042;42.626;23.382;2024-03-02T00:05:26;27.33;;;18.60;;
10005;SDS011;5042;42.626;23.382;2024-03-02T00:07:54;29.97;;;19.83;;
10005;SDS011;5042;42.626;23.382;2024-03-02T00:10:24;28.87;;;19.77;;
10005;SDS011;5042;42.626;23.382;2024-03-02T00:12:54;30.07;;;19.50;;
10005;SDS011;5042;42.626;23.382;2024-03-02T00:15:36;30.67;;;20.93;;
10005;SDS011;5042;42.626;23.382;2024-03-02T00:18:08;31.50;;;20.03;;
10005;SDS011;5042;42.626;23.382;2024-03-02T00:20:36;26.97;;;17.87;;
10005;SDS011;5042;42.626;23.382;2024-03-02T00:23:04;31.17;;;20.17;;
10005;SDS011;5042;42.626;23.382;2024-03-02T00:25:36;31.20;;;19.43;;
10005;SDS011;5042;42.626;23.382;2024-03-02T00:28:05;30.17;;;19.80;;
10005;SDS011;5042;42.626;23.382;2024-03-02T00:30:43;27.67;;;19.70;;
10005;SDS011;5042;42.626;23.382;2024-03-02T00:33:25;30.57;;;20.67;;
10005;SDS011;5042;42.626;23.382;2024-03-02T00:35:54;31.20;;;20.83;;
10005;SDS011;5042;42.626;23.382;2024-03-02T00:38:21;31.80;;;20.70;;
10005;SDS011;5042;42.626;23.382;2024-03-02T00:40:49;32.93;;;20.80;;
10005;SDS011;5042;42.626;23.382;2024-03-02T00:43:28;28.87;;;20.10;;
10005;SDS011;5042;42.626;23.382;2024-03-02T00:46:07;31.93;;;21.03;;
10005;SDS011;5042;42.626;23.382;2024-03-02T00:48:34;32.07;;;20.90;;
10005;SDS011;5042;42.626;23.382;2024-03-02T00:51:02;28.07;;;19.33;;
10005;SDS011;5042;42.626;23.382;2024-03-02T00:53:30;29.67;;;20.33;;
10005;SDS011;5042;42.626;23.382;2024-03-02T00:55:58;28.83;;;19.43;;
10005;SDS011;5042;42.626;23.382;2024-03-02T00:58:25;29.17;;;20.17;;
10005;SDS011;5042;42.626;23.382;2024-03-02T01:00:52;28.37;;;18.73;;
10005;SDS011;5042;42.626;23.382;2024-03-02T01:03:20;29.83;;;18.53;;
10005;SDS011;5042;42.626;23.382;2024-03-02T01:05:47;24.97;;;17.50;;
10005;SDS011;5042;42.626;23.382;2024-03-02T01:08:14;29.87;;;19.23;;
10005;SDS011;5042;42.626;23.382;2024-03-02T01:10:41;31.50;;;19.33;;
10005;SDS011;5042;42.626;23.382;2024-03-02T01:13:08;29.83;;;18.30;;
10005;SDS011;5042;42.626;23.382;2024-03-02T01:15:35;22.43;;;16.63;;
10005;SDS011;5042;42.626;23.382;2024-03-02T01:18:02;23.67;;;16.10;;
10005;SDS011;5042;42.626;23.382;2024-03-02T01:20:31;25.30;;;15.77;;
10005;SDS011;5042;42.626;23.382;2024-03-02T01:22:58;18.90;;;12.73;;
10005;SDS011;5042;42.626;23.382;2024-03-02T01:25:25;21.53;;;13.50;;
10005;SDS011;5042;42.626;23.382;2024-03-02T01:30:37;16.77;;;10.93;;
10005;SDS011;5042;42.626;23.382;2024-03-02T01:33:04;22.80;;;15.23;;
10005;SDS011;5042;42.626;23.382;2024-03-02T01:35:33;19.53;;;14.03;;
10005;SDS011;5042;42.626;23.382;2024-03-02T01:38:00;19.57;;;12.80;;
10005;SDS011;5042;42.626;23.382;2024-03-02T01:40:27;19.03;;;13.30;;
10005;SDS011;5042;42.626;23.382;2024-03-02T01:42:55;20.80;;;13.00;;
10005;SDS011;5042;42.626;23.382;2024-03-02T01:45:23;19.50;;;13.40;;
10005;SDS011;5042;42.626;23.382;2024-03-02T01:47:50;21.37;;;14.57;;
10005;SDS011;5042;42.626;23.382;2024-03-02T01:50:23;24.37;;;13.40;;
10005;SDS011;5042;42.626;23.382;2024-03-02T01:52:52;22.87;;;14.20;;
10005;SDS011;5042;42.626;23.382;2024-03-02T01:55:19;23.77;;;15.00;;
10005;SDS011;5042;42.626;23.382;2024-03-02T01:57:47;21.33;;;15.23;;
10005;SDS011;5042;42.626;23.382;2024-03-02T02:00:14;24.70;;;15.37;;
10005;SDS011;5042;42.626;23.382;2024-03-02T02:02:42;28.37;;;17.87;;
10005;SDS011;5042;42.626;23.382;2024-03-02T02:05:09;22.97;;;15.53;;
10005;SDS011;5042;42.626;23.382;2024-03-02T02:07:36;22.17;;;14.63;;
10005;SDS011;5042;42.626;23.382;2024-03-02T02:10:05;22.07;;;14.70;;
10005;SDS011;5042;42.626;23.382;2024-03-02T02:12:33;25.50;;;16.17;;
10005;SDS011;5042;42.626;23.382;2024-03-02T02:15:00;23.47;;;16.97;;
10005;SDS011;5042;42.626;23.382;2024-03-02T02:17:27;26.07;;;17.20;;
10005;SDS011;5042;42.626;23.382;2024-03-02T02:19:54;24.33;;;16.40;;
10005;SDS011;5042;42.626;23.382;2024-03-02T02:22:22;23.03;;;14.93;;
10005;SDS011;5042;42.626;23.382;2024-03-02T02:24:49;19.60;;;14.27;;
10005;SDS011;5042;42.626;23.382;2024-03-02T02:27:16;20.13;;;14.10;;
10005;SDS011;5042;42.626;23.382;2024-03-02T02:29:43;19.60;;;13.93;;
10005;SDS011;5042;42.626;23.382;2024-03-02T02:32:10;22.73;;;13.40;;
10005;SDS011;5042;42.626;23.382;2024-03-02T02:34:36;24.10;;;15.57;;
10005;SDS011;5042;42.626;23.382;2024-03-02T02:37:03;23.73;;;14.37;;
10005;SDS011;5042;42.626;23.382;2024-03-02T02:39:32;22.70;;;14.57;;
10005;SDS011;5042;42.626;23.382;2024-03-02T02:41:59;24.37;;;16.80;;
10005;SDS011;5042;42.626;23.382;2024-03-02T02:44:26;25.47;;;17.33;;
10005;SDS011;5042;42.626;23.382;2024-03-02T02:46:53;24.63;;;17.43;;
10005;SDS011;5042;42.626;23.382;2024-03-02T02:49:20;26.17;;;16.80;;
10005;SDS011;5042;42.626;23.382;2024-03-02T02:51:47;28.97;;;18.03;;
10005;SDS011;5042;42.626;23.382;2024-03-02T02:54:13;27.83;;;19.80;;
10005;SDS011;5042;42.626;23.382;2024-03-02T02:56:42;31.23;;;20.00;;
10005;SDS011;5042;42.626;23.382;2024-03-02T02:59:09;32.13;;;18.93;;
10005;SDS011;5042;42.626;23.382;2024-03-02T03:01:35;30.83;;;20.97;;
10005;SDS011;5042;42.626;23.382;2024-03-02T03:04:04;34.13;;;21.23;;
10005;SDS011;5042;42.626;23.382;2024-03-02T03:06:30;35.10;;;22.77;;
10005;SDS011;5042;42.626;23.382;2024-03-02T03:08:57;34.77;;;22.23;;
10005;SDS011;5042;42.626;23.382;2024-03-02T03:11:24;34.33;;;21.63;;
10005;SDS011;5042;42.626;23.382;2024-03-02T03:13:53;36.70;;;22.60;;
10005;SDS011;5042;42.626;23.382;2024-03-02T03:16:20;35.37;;;21.73;;
10005;SDS011;5042;42.626;23.382;2024-03-02T03:18:48;35.33;;;23.00;;
10005;SDS011;5042;42.626;23.382;2024-03-02T03:21:16;39.03;;;23.67;;
10005;SDS011;5042;42.626;23.382;2024-03-02T03:23:43;38.30;;;24.30;;
10005;SDS011;5042;42.626;23.382;2024-03-02T03:26:10;36.23;;;21.93;;
10005;SDS011;5042;42.626;23.382;2024-03-02T03:28:37;38.93;;;24.13;;
10005;SDS011;5042;42.626;23.382;2024-03-02T03:31:05;39.40;;;23.77;;
10005;SDS011;5042;42.626;23.382;2024-03-02T03:33:32;36.17;;;22.10;;
10005;SDS011;5042;42.626;23.382;2024-03-02T03:35:59;37.40;;;22.90;;
10005;SDS011;5042;42.626;23.382;2024-03-02T03:38:28;32.13;;;21.17;;
10005;SDS011;5042;42.626;23.382;2024-03-02T03:40:55;36.07;;;22.90;;
10005;SDS011;5042;42.626;23.382;2024-03-02T03:43:22;34.43;;;22.53;;
10005;SDS011;5042;42.626;23.382;2024-03-02T03:45:49;35.77;;;21.80;;
10005;SDS011;5042;42.626;23.382;2024-03-02T03:48:17;36.30;;;21.93;;
10005;SDS011;5042;42.626;23.382;2024-03-02T03:50:44;34.97;;;22.50;;
10005;SDS011;5042;42.626;23.382;2024-03-02T03:53:11;35.77;;;22.43;;
10005;SDS011;5042;42.626;23.382;2024-03-02T03:55:39;35.97;;;22.80;;
10005;SDS011;5042;42.626;23.382;2024-03-02T03:58:06;33.73;;;22.30;;
10005;SDS011;5042;42.626;23.382;2024-03-02T04:00:33;34.77;;;22.97;;
10005;SDS011;5042;42.626;23.382;2024-03-02T04:03:00;36.97;;;22.57;;
10005;SDS011;5042;42.626;23.382;2024-03-02T04:05:28;38.53;;;23.67;;
10005;SDS011;5042;42.626;23.382;2024-03-02T04:07:55;35.40;;;22.73;;
10005;SDS011;5042;42.626;23.382;2024-03-02T04:10:22;38.13;;;23.53;;
10005;SDS011;5042;42.626;23.382;2024-03-02T04:12:49;36.57;;;22.87;;
10005;SDS011;5042;42.626;23.382;2024-03-02T04:15:16;34.50;;;22.10;;
10005;SDS011;5042;42.626;23.382;2024-03-02T04:17:44;33.60;;;22.17;;
10005;SDS011;5042;42.626;23.382;2024-03-02T04:20:11;39.10;;;23.67;;
10005;SDS011;5042;42.626;23.382;2024-03-02T04:22:40;35.40;;;22.80;;
10005;SDS011;5042;42.626;23.382;2024-03-02T04:25:07;35.90;;;22.77;;
10005;SDS011;5042;42.626;23.382;2024-03-02T04:27:34;35.93;;;22.63;;
10005;SDS011;5042;42.626;23.382;2024-03-02T04:30:02;37.30;;;22.70;;
10005;SDS011;5042;42.626;23.382;2024-03-02T04:32:30;35.83;;;22.73;;
10005;SDS011;5042;42.626;23.382;2024-03-02T04:34:57;33.93;;;22.13;;
10005;SDS011;5042;42.626;23.382;2024-03-02T04:37:24;34.90;;;22.47;;
10005;SDS011;5042;42.626;23.382;2024-03-02T04:39:52;34.63;;;22.30;;
10005;SDS011;5042;42.626;23.382;2024-03-02T04:42:19;34.80;;;22.37;;
10005;SDS011;5042;42.626;23.382;2024-03-02T04:44:47;33.67;;;22.07;;
10005;SDS011;5042;42.626;23.382;2024-03-02T04:47:14;34.07;;;22.20;;
10005;SDS011;5042;42.626;23.382;2024-03-02T04:49:41;32.83;;;20.93;;
10005;SDS011;5042;42.626;23.382;2024-03-02T04:52:08;30.40;;;20.87;;
10005;SDS011;5042;42.626;23.382;2024-03-02T04:54:35;33.37;;;20.63;;
10005;SDS011;5042;42.626;23.382;2024-03-02T04:57:24;31.00;;;20.37;;
10005;SDS011;5042;42.626;23.382;2024-03-02T04:59:51;30.83;;;20.33;;
10005;SDS011;5042;42.626;23.382;2024-03-02T05:02:17;32.97;;;20.70;;
10005;SDS011;5042;42.626;23.382;2024-03-02T05:04:44;30.20;;;20.80;;
10005;SDS011;5042;42.626;23.382;2024-03-02T05:07:13;28.67;;;19.53;;
10005;SDS011;5042;42.626;23.382;2024-03-02T05:09:40;29.13;;;19.40;;
10005;SDS011;5042;42.626;23.382;2024-03-02T05:12:07;29.77;;;19.37;;
10005;SDS011;5042;42.626;23.382;2024-03-02T05:14:55;29.80;;;19.17;;
10005;SDS011;5042;42.626;23.382;2024-03-02T05:17:22;30.53;;;19.27;;
10005;SDS011;5042;42.626;23.382;2024-03-02T05:19:49;27.57;;;18.57;;
10005;SDS011;5042;42.626;23.382;2024-03-02T05:22:16;29.80;;;18.90;;
10005;SDS011;5042;42.626;23.382;2024-03-02T05:24:43;27.33;;;18.03;;
10005;SDS011;5042;42.626;23.382;2024-03-02T05:27:10;25.40;;;16.77;;
10005;SDS011;5042;42.626;23.382;2024-03-02T05:29:37;28.83;;;18.17;;
10005;SDS011;5042;42.626;23.382;2024-03-02T05:32:05;26.30;;;18.17;;
10005;SDS011;5042;42.626;23.382;2024-03-02T05:34:32;28.57;;;17.07;;
10005;SDS011;5042;42.626;23.382;2024-03-02T05:37:01;29.03;;;19.57;;
10005;SDS011;5042;42.626;23.382;2024-03-02T05:39:28;28.43;;;19.50;;
10005;SDS011;5042;42.626;23.382;2024-03-02T05:41:55;33.40;;;20.80;;
10005;SDS011;5042;42.626;23.382;2024-03-02T05:44:21;34.27;;;21.83;;
10005;SDS011;5042;42.626;23.382;2024-03-02T05:46:48;34.10;;;21.40;;
10005;SDS011;5042;42.626;23.382;2024-03-02T05:49:17;36.60;;;23.00;;
10005;SDS011;5042;42.626;23.382;2024-03-02T05:51:44;36.17;;;23.57;;
10005;SDS011;5042;42.626;23.382;2024-03-02T05:54:11;37.00;;;23.50;;
10005;SDS011;5042;42.626;23.382;2024-03-02T05:56:38;33.07;;;23.67;;
10005;SDS011;5042;42.626;23.382;2024-03-02T05:59:05;35.63;;;22.50;;
10005;SDS011;5042;42.626;23.382;2024-03-02T06:01:38;37.13;;;22.23;;
10005;SDS011;5042;42.626;23.382;2024-03-02T06:04:05;34.30;;;22.07;;
10005;SDS011;5042;42.626;23.382;2024-03-02T06:06:34;33.30;;;21.73;;
10005;SDS011;5042;42.626;23.382;2024-03-02T06:09:01;33.70;;;20.67;;
10005;SDS011;5042;42.626;23.382;2024-03-02T06:11:30;28.70;;;20.13;;
10005;SDS011;5042;42.626;23.382;2024-03-02T06:13:57;32.23;;;20.63;;
10005;SDS011;5042;42.626;23.382;2024-03-02T06:16:24;32.23;;;21.03;;
10005;SDS011;5042;42.626;23.382;2024-03-02T06:18:51;33.83;;;22.67;;
10005;SDS011;5042;42.626;23.382;2024-03-02T06:21:19;34.20;;;22.03;;
10005;SDS011;5042;42.626;23.382;2024-03-02T06:23:47;32.63;;;22.13;;
10005;SDS011;5042;42.626;23.382;2024-03-02T06:26:14;36.17;;;23.27;;
10005;SDS011;5042;42.626;23.382;2024-03-02T06:28:41;37.97;;;23.20;;
10005;SDS011;5042;42.626;23.382;2024-03-02T06:31:09;35.67;;;23.57;;
10005;SDS011;5042;42.626;23.382;2024-03-02T06:33:35;33.37;;;23.53;;
10005;SDS011;5042;42.626;23.382;2024-03-02T06:36:02;40.70;;;24.27;;
10005;SDS011;5042;42.626;23.382;2024-03-02T06:38:29;37.80;;;22.87;;
10005;SDS011;5042;42.626;23.382;2024-03-02T06:40:58;37.53;;;23.70;;
10005;SDS011;5042;42.626;23.382;2024-03-02T06:43:25;41.40;;;25.60;;
10005;SDS011;5042;42.626;23.382;2024-03-02T06:45:52;38.37;;;25.27;;
10005;SDS011;5042;42.626;23.382;2024-03-02T06:48:19;42.57;;;26.37;;
10005;SDS011;5042;42.626;23.382;2024-03-02T06:50:46;39.80;;;24.67;;
10005;SDS011;5042;42.626;23.382;2024-03-02T06:53:13;40.67;;;24.60;;
10005;SDS011;5042;42.626;23.382;2024-03-02T06:55:42;36.10;;;22.33;;
10005;SDS011;5042;42.626;23.382;2024-03-02T06:58:11;38.10;;;22.97;;
10005;SDS011;5042;42.626;23.382;2024-03-02T07:00:38;34.07;;;21.57;;
10005;SDS011;5042;42.626;23.382;2024-03-02T07:03:05;34.93;;;20.77;;
10005;SDS011;5042;42.626;23.382;2024-03-02T07:05:31;37.00;;;23.23;;
10005;SDS011;5042;42.626;23.382;2024-03-02T07:07:58;35.13;;;21.60;;
10005;SDS011;5042;42.626;23.382;2024-03-02T07:10:26;35.13;;;22.13;;
10005;SDS011;5042;42.626;23.382;2024-03-02T07:12:53;34.33;;;21.73;;
10005;SDS011;5042;42.626;23.382;2024-03-02T07:15:21;34.70;;;21.43;;
10005;SDS011;5042;42.626;23.382;2024-03-02T07:18:02;36.57;;;22.03;;
10005;SDS011;5042;42.626;23.382;2024-03-02T07:20:29;33.90;;;21.23;;
10005;SDS011;5042;42.626;23.382;2024-03-02T07:22:56;38.80;;;23.27;;
10005;SDS011;5042;42.626;23.382;2024-03-02T07:25:23;37.87;;;23.00;;
10005;SDS011;5042;42.626;23.382;2024-03-02T07:27:50;34.53;;;23.20;;
10005;SDS011;5042;42.626;23.382;2024-03-02T07:30:18;41.63;;;24.20;;
10005;SDS011;5042;42.626;23.382;2024-03-02T07:32:46;38.20;;;22.77;;
10005;SDS011;5042;42.626;23.382;2024-03-02T07:35:16;37.10;;;22.77;;
10005;SDS011;5042;42.626;23.382;2024-03-02T07:37:43;37.10;;;23.00;;
10005;SDS011;5042;42.626;23.382;2024-03-02T07:40:11;40.27;;;24.27;;
10005;SDS011;5042;42.626;23.382;2024-03-02T07:42:39;38.10;;;24.30;;
10005;SDS011;5042;42.626;23.382;2024-03-02T07:45:07;41.10;;;24.93;;
10005;SDS011;5042;42.626;23.382;2024-03-02T07:47:34;41.77;;;26.27;;
10005;SDS011;5042;42.626;23.382;2024-03-02T07:50:02;47.00;;;27.37;;
10005;SDS011;5042;42.626;23.382;2024-03-02T07:52:31;43.33;;;26.10;;
10005;SDS011;5042;42.626;23.382;2024-03-02T07:54:58;37.23;;;23.23;;
10005;SDS011;5042;42.626;23.382;2024-03-02T07:57:25;39.40;;;23.60;;
10005;SDS011;5042;42.626;23.382;2024-03-02T07:59:52;39.90;;;24.27;;
10005;SDS011;5042;42.626;23.382;2024-03-02T08:02:19;38.47;;;22.93;;
10005;SDS011;5042;42.626;23.382;2024-03-02T08:04:47;39.43;;;22.83;;
10005;SDS011;5042;42.626;23.382;2024-03-02T08:07:16;38.73;;;23.03;;
10005;SDS011;5042;42.626;23.382;2024-03-02T08:09:43;36.97;;;22.07;;
10005;SDS011;5042;42.626;23.382;2024-03-02T08:12:11;38.87;;;22.23;;
10005;SDS011;5042;42.626;23.382;2024-03-02T08:14:38;38.57;;;21.90;;
10005;SDS011;5042;42.626;23.382;2024-03-02T08:17:06;32.23;;;19.10;;
10005;SDS011;5042;42.626;23.382;2024-03-02T08:19:36;37.57;;;22.47;;
10005;SDS011;5042;42.626;23.382;2024-03-02T08:22:03;38.70;;;22.30;;
10005;SDS011;5042;42.626;23.382;2024-03-02T08:24:32;37.47;;;22.20;;
10005;SDS011;5042;42.626;23.382;2024-03-02T08:27:00;38.93;;;22.23;;
10005;SDS011;5042;42.626;23.382;2024-03-02T08:29:27;35.10;;;22.30;;
10005;SDS011;5042;42.626;23.382;2024-03-02T08:31:54;39.00;;;22.63;;
10005;SDS011;5042;42.626;23.382;2024-03-02T08:34:21;36.93;;;22.40;;
10005;SDS011;5042;42.626;23.382;2024-03-02T08:36:48;38.67;;;22.70;;
10005;SDS011;5042;42.626;23.382;2024-03-02T08:39:15;38.37;;;23.37;;
10005;SDS011;5042;42.626;23.382;2024-03-02T08:41:44;36.77;;;21.97;;
10005;SDS011;5042;42.626;23.382;2024-03-02T08:44:11;37.67;;;22.70;;
10005;SDS011;5042;42.626;23.382;2024-03-02T08:46:38;38.47;;;23.23;;
10005;SDS011;5042;42.626;23.382;2024-03-02T08:49:05;39.07;;;23.73;;
10005;SDS011;5042;42.626;23.382;2024-03-02T08:51:32;37.97;;;23.87;;
10005;SDS011;5042;42.626;23.382;2024-03-02T08:53:59;37.33;;;23.80;;
10005;SDS011;5042;42.626;23.382;2024-03-02T08:56:26;31.90;;;20.60;;
10005;SDS011;5042;42.626;23.382;2024-03-02T08:58:54;33.83;;;22.03;;
10005;SDS011;5042;42.626;23.382;2024-03-02T09:01:21;33.00;;;22.33;;
10005;SDS011;5042;42.626;23.382;2024-03-02T09:03:48;35.57;;;21.93;;
10005;SDS011;5042;42.626;23.382;2024-03-02T09:06:15;28.87;;;19.67;;
10005;SDS011;5042;42.626;23.382;2024-03-02T09:08:43;27.57;;;18.77;;
10005;SDS011;5042;42.626;23.382;2024-03-02T09:11:10;28.43;;;19.23;;
10005;SDS011;5042;42.626;23.382;2024-03-02T09:13:37;29.73;;;18.67;;
10005;SDS011;5042;42.626;23.382;2024-03-02T09:16:06;27.63;;;18.20;;
10005;SDS011;5042;42.626;23.382;2024-03-02T09:18:36;25.90;;;16.93;;
10005;SDS011;5042;42.626;23.382;2024-03-02T09:21:03;22.83;;;15.13;;
10005;SDS011;5042;42.626;23.382;2024-03-02T09:23:30;39.87;;;28.23;;
10005;SDS011;5042;42.626;23.382;2024-03-02T09:25:57;35.77;;;25.17;;
10005;SDS011;5042;42.626;23.382;2024-03-02T09:28:24;27.17;;;17.47;;
10005;SDS011;5042;42.626;23.382;2024-03-02T09:30:51;25.37;;;15.50;;
10005;SDS011;5042;42.626;23.382;2024-03-02T09:33:20;22.87;;;14.83;;
10005;SDS011;5042;42.626;23.382;2024-03-02T09:35:46;25.87;;;16.47;;
10005;SDS011;5042;42.626;23.382;2024-03-02T09:38:14;23.40;;;16.83;;
10005;SDS011;5042;42.626;23.382;2024-03-02T09:40:41;24.70;;;17.17;;
10005;SDS011;5042;42.626;23.382;2024-03-02T09:43:08;26.27;;;16.40;;
10005;SDS011;5042;42.626;23.382;2024-03-02T09:45:36;27.47;;;17.47;;
10005;SDS011;5042;42.626;23.382;2024-03-02T09:48:04;26.63;;;18.53;;
10005;SDS011;5042;42.626;23.382;2024-03-02T09:50:33;28.13;;;17.60;;
10005;SDS011;5042;42.626;23.382;2024-03-02T09:53:00;28.60;;;18.47;;
10005;SDS011;5042;42.626;23.382;2024-03-02T09:55:27;29.00;;;18.33;;
10005;SDS011;5042;42.626;23.382;2024-03-02T09:57:54;28.87;;;18.50;;
10005;SDS011;5042;42.626;23.382;2024-03-02T10:00:21;28.80;;;19.50;;
10005;SDS011;5042;42.626;23.382;2024-03-02T10:02:48;28.90;;;18.93;;
10005;SDS011;5042;42.626;23.382;2024-03-02T10:05:23;26.07;;;17.90;;
10005;SDS011;5042;42.626;23.382;2024-03-02T10:07:57;28.20;;;17.97;;
10005;SDS011;5042;42.626;23.382;2024-03-02T10:10:26;28.73;;;18.47;;
10005;SDS011;5042;42.626;23.382;2024-03-02T10:13:05;30.17;;;19.50;;
10005;SDS011;5042;42.626;23.382;2024-03-02T10:15:32;30.90;;;18.00;;
10005;SDS011;5042;42.626;23.382;2024-03-02T10:17:59;24.57;;;15.33;;
10005;SDS011;5042;42.626;23.382;2024-03-02T10:20:27;27.33;;;16.90;;
10005;SDS011;5042;42.626;23.382;2024-03-02T10:22:54;23.70;;;16.23;;
10005;SDS011;5042;42.626;23.382;2024-03-02T10:25:32;28.00;;;18.70;;
10005;SDS011;5042;42.626;23.382;2024-03-02T10:27:59;25.10;;;16.80;;
10005;SDS011;5042;42.626;23.382;2024-03-02T10:30:27;29.10;;;18.50;;
10005;SDS011;5042;42.626;23.382;2024-03-02T10:32:54;28.90;;;18.27;;
10005;SDS011;5042;42.626;23.382;2024-03-02T10:35:21;28.13;;;18.07;;
10005;SDS011;5042;42.626;23.382;2024-03-02T10:37:51;24.93;;;17.33;;
10005;SDS011;5042;42.626;23.382;2024-03-02T10:40:21;24.80;;;16.07;;
10005;SDS011;5042;42.626;23.382;2024-03-02T10:42:49;24.73;;;17.33;;
10005;SDS011;5042;42.626;23.382;2024-03-02T10:45:17;25.00;;;16.63;;
10005;SDS011;5042;42.626;23.382;2024-03-02T10:47:46;25.53;;;16.13;;
10005;SDS011;5042;42.626;23.382;2024-03-02T10:50:13;21.77;;;14.97;;
10005;SDS011;5042;42.626;23.382;2024-03-02T10:52:40;22.07;;;15.27;;
10005;SDS011;5042;42.626;23.382;2024-03-02T10:55:08;22.57;;;14.77;;
10005;SDS011;5042;42.626;23.382;2024-03-02T10:57:38;22.53;;;15.13;;
10005;SDS011;5042;42.626;23.382;2024-03-02T11:00:11;20.60;;;15.87;;
10005;SDS011;5042;42.626;23.382;2024-03-02T11:02:46;19.67;;;14.37;;
10005;SDS011;5042;42.626;23.382;2024-03-02T11:05:18;22.10;;;15.67;;
10005;SDS011;5042;42.626;23.382;2024-03-02T11:07:53;21.50;;;14.87;;
10005;SDS011;5042;42.626;23.382;2024-03-02T11:10:28;21.43;;;15.23;;
10005;SDS011;5042;42.626;23.382;2024-03-02T11:13:05;20.43;;;14.90;;
10005;SDS011;5042;42.626;23.382;2024-03-02T11:15:36;21.33;;;15.60;;
10005;SDS011;5042;42.626;23.382;2024-03-02T11:18:04;23.00;;;15.80;;
10005;SDS011;5042;42.626;23.382;2024-03-02T11:20:34;23.73;;;14.83;;
10005;SDS011;5042;42.626;23.382;2024-03-02T11:23:05;21.10;;;14.60;;
10005;SDS011;5042;42.626;23.382;2024-03-02T11:25:32;21.57;;;15.03;;
10005;SDS011;5042;42.626;23.382;2024-03-02T11:28:00;22.47;;;15.43;;
10005;SDS011;5042;42.626;23.382;2024-03-02T11:33:24;22.10;;;15.50;;
10005;SDS011;5042;42.626;23.382;2024-03-02T11:35:56;20.93;;;15.23;;
10005;SDS011;5042;42.626;23.382;2024-03-02T11:38:30;19.67;;;14.20;;
10005;SDS011;5042;42.626;23.382;2024-03-02T11:40:59;21.80;;;14.67;;
10005;SDS011;5042;42.626;23.382;2024-03-02T11:43:27;19.67;;;14.23;;
10005;SDS011;5042;42.626;23.382;2024-03-02T11:45:59;24.63;;;16.00;;
10005;SDS011;5042;42.626;23.382;2024-03-02T11:48:29;23.17;;;15.97;;
10005;SDS011;5042;42.626;23.382;2024-03-02T11:50:57;23.70;;;15.60;;
10005;SDS011;5042;42.626;23.382;2024-03-02T11:53:25;21.53;;;15.30;;
10005;SDS011;5042;42.626;23.382;2024-03-02T11:55:54;21.70;;;15.10;;
10005;SDS011;5042;42.626;23.382;2024-03-02T11:58:22;23.20;;;16.30;;
10005;SDS011;5042;42.626;23.382;2024-03-02T12:00:51;23.23;;;16.00;;
10005;SDS011;5042;42.626;23.382;2024-03-02T12:03:21;22.23;;;16.00;;
10005;SDS011;5042;42.626;23.382;2024-03-02T12:05:50;22.83;;;15.57;;
10005;SDS011;5042;42.626;23.382;2024-03-02T12:08:17;20.40;;;14.87;;
10005;SDS011;5042;42.626;23.382;2024-03-02T12:10:48;20.47;;;15.03;;
10005;SDS011;5042;42.626;23.382;2024-03-02T12:13:22;18.43;;;14.23;;
10005;SDS011;5042;42.626;23.382;2024-03-02T12:15:52;21.67;;;14.53;;
10005;SDS011;5042;42.626;23.382;2024-03-02T12:18:21;18.40;;;13.37;;
10005;SDS011;5042;42.626;23.382;2024-03-02T12:20:48;18.50;;;13.73;;
10005;SDS011;5042;42.626;23.382;2024-03-02T12:23:18;20.13;;;13.80;;
10005;SDS011;5042;42.626;23.382;2024-03-02T12:25:45;19.03;;;14.10;;
10005;SDS011;5042;42.626;23.382;2024-03-02T12:28:13;18.97;;;13.47;;
10005;SDS011;5042;42.626;23.382;2024-03-02T12:30:40;18.03;;;13.27;;
10005;SDS011;5042;42.626;23.382;2024-03-02T12:33:07;20.43;;;14.73;;
10005;SDS011;5042;42.626;23.382;2024-03-02T12:35:35;19.43;;;13.90;;
10005;SDS011;5042;42.626;23.382;2024-03-02T12:38:02;17.20;;;13.90;;
10005;SDS011;5042;42.626;23.382;2024-03-02T12:40:30;17.03;;;13.90;;
10005;SDS011;5042;42.626;23.382;2024-03-02T12:42:57;18.90;;;13.93;;
10005;SDS011;5042;42.626;23.382;2024-03-02T12:45:24;19.47;;;14.23;;
10005;SDS011;5042;42.626;23.382;2024-03-02T12:47:51;20.60;;;14.57;;
10005;SDS011;5042;42.626;23.382;2024-03-02T12:50:18;20.53;;;14.83;;
10005;SDS011;5042;42.626;23.382;2024-03-02T12:52:52;22.37;;;15.13;;
10005;SDS011;5042;42.626;23.382;2024-03-02T12:55:20;20.70;;;14.40;;
10005;SDS011;5042;42.626;23.382;2024-03-02T12:57:49;20.30;;;14.73;;
10005;SDS011;5042;42.626;23.382;2024-03-02T13:00:17;22.13;;;14.77;;
10005;SDS011;5042;42.626;23.382;2024-03-02T13:02:45;20.93;;;14.83;;
10005;SDS011;5042;42.626;23.382;2024-03-02T13:05:12;20.90;;;14.60;;
10005;SDS011;5042;42.626;23.382;2024-03-02T13:07:39;18.07;;;13.90;;
10005;SDS011;5042;42.626;23.382;2024-03-02T13:10:09;18.07;;;13.43;;
10005;SDS011;5042;42.626;23.382;2024-03-02T13:12:36;18.60;;;13.90;;
10005;SDS011;5042;42.626;23.382;2024-03-02T13:15:04;18.93;;;13.97;;
10005;SDS011;5042;42.626;23.382;2024-03-02T13:17:31;18.97;;;14.50;;
10005;SDS011;5042;42.626;23.382;2024-03-02T13:20:01;18.30;;;14.07;;
10005;SDS011;5042;42.626;23.382;2024-03-02T13:22:29;16.20;;;13.30;;
10005;SDS011;5042;42.626;23.382;2024-03-02T13:24:56;18.87;;;14.23;;
10005;SDS011;5042;42.626;23.382;2024-03-02T13:27:26;18.90;;;14.27;;
10005;SDS011;5042;42.626;23.382;2024-03-02T13:29:53;19.90;;;14.67;;
10005;SDS011;5042;42.626;23.382;2024-03-02T13:32:20;19.07;;;14.13;;
10005;SDS011;5042;42.626;23.382;2024-03-02T13:34:49;19.33;;;13.93;;
10005;SDS011;5042;42.626;23.382;2024-03-02T13:37:16;22.27;;;14.97;;
10005;SDS011;5042;42.626;23.382;2024-03-02T13:39:43;21.23;;;14.80;;
10005;SDS011;5042;42.626;23.382;2024-03-02T13:42:11;20.07;;;14.67;;
10005;SDS011;5042;42.626;23.382;2024-03-02T13:44:41;21.40;;;15.63;;
10005;SDS011;5042;42.626;23.382;2024-03-02T13:47:10;20.97;;;16.00;;
10005;SDS011;5042;42.626;23.382;2024-03-02T13:49:37;24.23;;;16.57;;
10005;SDS011;5042;42.626;23.382;2024-03-02T13:52:08;19.07;;;15.67;;
10005;SDS011;5042;42.626;23.382;2024-03-02T13:54:38;21.53;;;15.43;;
10005;SDS011;5042;42.626;23.382;2024-03-02T13:57:05;20.13;;;15.33;;
10005;SDS011;5042;42.626;23.382;2024-03-02T13:59:32;22.13;;;15.30;;
10005;SDS011;5042;42.626;23.382;2024-03-02T14:02:01;21.43;;;15.40;;
10005;SDS011;5042;42.626;23.382;2024-03-02T14:04:29;22.23;;;16.63;;
10005;SDS011;5042;42.626;23.382;2024-03-02T14:06:57;21.00;;;16.33;;
10005;SDS011;5042;42.626;23.382;2024-03-02T14:09:23;22.33;;;16.47;;
10005;SDS011;5042;42.626;23.382;2024-03-02T14:11:50;21.07;;;14.87;;
10005;SDS011;5042;42.626;23.382;2024-03-02T14:14:17;21.90;;;15.70;;
10005;SDS011;5042;42.626;23.382;2024-03-02T14:16:44;22.40;;;16.33;;
10005;SDS011;5042;42.626;23.382;2024-03-02T14:19:13;20.30;;;15.03;;
10005;SDS011;5042;42.626;23.382;2024-03-02T14:21:40;21.73;;;15.73;;
10005;SDS011;5042;42.626;23.382;2024-03-02T14:24:07;22.43;;;16.80;;
10005;SDS011;5042;42.626;23.382;2024-03-02T14:26:34;22.77;;;15.87;;
10005;SDS011;5042;42.626;23.382;2024-03-02T14:29:02;22.07;;;15.80;;
10005;SDS011;5042;42.626;23.382;2024-03-02T14:31:30;22.50;;;17.03;;